Time;durP1;ratioP1;P1;durP2;ratioP2;P2;SDS_P1;SDS_P2;PMS_P1;PMS_P2;Temp;Humidity;BMP_temperature;BMP_pressure;BME280_temperature;BME280_humidity;BME280_pressure;Samples;Min_cycle;Max_cycle;Signal;HPM_P1;HPM_P2
2022/04/27 00:01:17;;;;;;;11.55;8.90;;;;;;;;;;5037860;28;20084;-67
2022/04/27 00:03:43;;;;;;;15.10;9.32;;;9.90;99.90;;;;;;5055258;28;20068;-68
2022/04/27 00:06:10;;;;;;;14.65;10.35;;;;;;;;;;5055550;28;20532;-70
2022/04/27 00:08:37;;;;;;;12.05;9.55;;;;;;;;;;5054567;28;20049;-70
2022/04/27 00:11:04;;;;;;;12.32;8.68;;;;;;;;;;5055428;28;20041;-68
2022/04/27 00:13:30;;;;;;;14.75;9.05;;;;;;;;;;5055476;28;20400;-68
2022/04/27 00:15:56;;;;;;;13.73;9.35;;;;;;;;;;5055705;28;20392;-70
2022/04/27 00:18:22;;;;;;;14.55;9.25;;;;;;;;;;5055410;28;20127;-70
2022/04/27 00:20:48;;;;;;;11.98;9.25;;;;;;;;;;5055522;28;20045;-70
2022/04/27 00:23:14;;;;;;;14.07;9.07;;;;;;;;;;5055266;28;20037;-68
2022/04/27 00:25:40;;;;;;;14.57;9.05;;;9.70;99.90;;;;;;5055370;28;20110;-67
2022/04/27 00:28:06;;;;;;;11.13;8.38;;;9.60;99.90;;;;;;5055269;28;20025;-67
2022/04/27 00:30:32;;;;;;;16.25;10.35;;;9.60;99.90;;;;;;5055355;28;20036;-68
2022/04/27 00:32:58;;;;;;;11.68;9.57;;;9.60;99.90;;;;;;5055314;28;20067;-68
2022/04/27 00:35:24;;;;;;;15.93;10.05;;;9.60;99.90;;;;;;5055411;28;20496;-67
2022/04/27 00:37:50;;;;;;;11.73;8.75;;;9.60;99.90;;;;;;5055196;28;20051;-67
2022/04/27 00:40:15;;;;;;;13.02;9.02;;;9.50;99.90;;;;;;5055041;28;20515;-67
2022/04/27 00:42:41;;;;;;;12.57;8.55;;;9.60;99.90;;;;;;5054869;28;20048;-68
2022/04/27 00:45:07;;;;;;;13.95;9.02;;;9.50;99.90;;;;;;5054610;28;20099;-68
2022/04/27 00:47:33;;;;;;;12.65;8.75;;;9.50;99.90;;;;;;5054919;28;20044;-68
2022/04/27 00:49:59;;;;;;;12.48;9.15;;;9.50;99.90;;;;;;5054995;28;20045;-68
2022/04/27 00:52:25;;;;;;;12.35;8.95;;;9.50;99.90;;;;;;5055114;28;20037;-68
2022/04/27 00:54:53;;;;;;;12.95;8.50;;;9.40;99.90;;;;;;5054848;28;20581;-67
2022/04/27 00:57:27;;;;;;;11.80;9.50;;;9.40;99.90;;;;;;5054786;28;20522;-68
2022/04/27 00:59:54;;;;;;;11.25;8.80;;;9.30;99.90;;;;;;5054810;28;20384;-68
2022/04/27 01:02:20;;;;;;;10.65;8.05;;;9.20;99.90;;;;;;5054738;28;20040;-67
2022/04/27 01:04:46;;;;;;;13.13;9.10;;;9.10;99.90;;;;;;5054655;28;20051;-67
2022/04/27 01:07:12;;;;;;;11.68;8.68;;;9.10;99.90;;;;;;5054628;28;20440;-69
2022/04/27 01:09:39;;;;;;;11.05;8.02;;;9.00;99.90;;;;;;5054772;28;20076;-67
2022/04/27 01:12:05;;;;;;;16.15;9.50;;;9.10;99.90;;;;;;5054490;28;20066;-68
2022/04/27 01:14:45;;;;;;;12.07;8.25;;;9.00;99.90;;;;;;5054165;28;20067;-67
2022/04/27 01:17:11;;;;;;;12.23;8.30;;;9.00;99.90;;;;;;5054117;28;20399;-68
2022/04/27 01:19:37;;;;;;;10.93;8.02;;;8.90;99.90;;;;;;5054297;28;20334;-67
2022/04/27 01:22:04;;;;;;;14.40;9.07;;;8.90;99.90;;;;;;5054331;28;20033;-67
2022/04/27 01:24:30;;;;;;;10.45;8.57;;;9.00;99.90;;;;;;5054144;28;20562;-67
2022/04/27 01:26:56;;;;;;;13.07;8.57;;;9.00;99.90;;;;;;5054060;28;20041;-68
2022/04/27 01:29:25;;;;;;;12.77;8.80;;;8.90;99.90;;;;;;5054077;28;20124;-67
2022/04/27 01:31:53;;;;;;;11.68;8.07;;;8.90;99.90;;;;;;5054043;28;20056;-67
2022/04/27 01:34:20;;;;;;;13.63;8.65;;;;;;;;;;5053876;28;20049;-68
2022/04/27 01:36:46;;;;;;;11.27;8.18;;;8.80;99.90;;;;;;5053844;28;20542;-68
2022/04/27 01:39:12;;;;;;;14.13;8.43;;;8.70;99.90;;;;;;5053797;28;20079;-67
2022/04/27 01:41:38;;;;;;;12.70;8.55;;;8.80;99.90;;;;;;5053668;28;20064;-67
2022/04/27 01:44:04;;;;;;;12.60;8.52;;;8.90;99.90;;;;;;5053505;28;20052;-68
2022/04/27 01:46:30;;;;;;;11.57;8.98;;;8.90;99.90;;;;;;5053672;28;20044;-67
2022/04/27 01:48:56;;;;;;;12.90;9.10;;;8.80;99.90;;;;;;5053655;28;20136;-68
2022/04/27 01:54:15;;;;;;;13.73;8.77;;;8.80;99.90;;;;;;5053569;28;20507;-68
2022/04/27 01:56:44;;;;;;;9.35;7.57;;;8.80;99.90;;;;;;5053367;28;20099;-67
2022/04/27 01:59:12;;;;;;;11.25;8.23;;;8.80;99.90;;;;;;5052717;28;20120;-67
2022/04/27 02:01:38;;;;;;;12.48;8.18;;;8.70;99.90;;;;;;5053035;28;20131;-68
2022/04/27 02:04:05;;;;;;;18.45;8.77;;;8.70;99.90;;;;;;5053360;28;20377;-67
2022/04/27 02:06:31;;;;;;;10.40;7.47;;;8.80;99.90;;;;;;5053318;28;20048;-68
2022/04/27 02:08:57;;;;;;;11.50;8.60;;;8.80;99.90;;;;;;5053332;28;20112;-68
2022/04/27 02:11:24;;;;;;;14.13;9.23;;;8.70;99.90;;;;;;5065271;28;20105;-68
2022/04/27 02:13:54;;;;;;;12.15;8.38;;;8.70;99.90;;;;;;5073275;28;20055;-68
2022/04/27 02:16:22;;;;;;;11.63;8.40;;;8.60;99.90;;;;;;5073215;28;20396;-68
2022/04/27 02:18:48;;;;;;;12.65;9.52;;;8.60;99.90;;;;;;5073218;28;20119;-67
2022/04/27 02:21:15;;;;;;;12.52;9.00;;;8.60;99.90;;;;;;5072975;28;20040;-68
2022/04/27 02:23:41;;;;;;;11.45;8.48;;;8.60;99.90;;;;;;5072937;28;20043;-67
2022/04/27 02:26:07;;;;;;;9.20;7.65;;;8.60;99.90;;;;;;5073243;28;20047;-67
2022/04/27 02:28:33;;;;;;;11.05;8.20;;;8.60;99.90;;;;;;5073241;28;20032;-67
2022/04/27 02:30:59;;;;;;;14.32;8.85;;;8.40;99.90;;;;;;5072932;28;20101;-68
2022/04/27 02:33:25;;;;;;;15.23;10.45;;;8.30;99.90;;;;;;5073197;28;20032;-67
2022/04/27 02:35:51;;;;;;;11.50;8.18;;;8.30;99.90;;;;;;5073088;28;20563;-68
2022/04/27 02:38:16;;;;;;;10.55;8.27;;;8.40;99.90;;;;;;5072983;28;20040;-68
2022/04/27 02:40:42;;;;;;;10.55;8.38;;;8.30;99.90;;;;;;5072613;28;20475;-68
2022/04/27 02:43:08;;;;;;;13.18;8.73;;;8.30;99.90;;;;;;5072582;28;20074;-68
2022/04/27 02:45:33;;;;;;;11.30;8.35;;;8.40;99.90;;;;;;5072454;28;20063;-68
2022/04/27 02:47:59;;;;;;;14.13;8.98;;;8.30;99.90;;;;;;5072709;28;20119;-67
2022/04/27 02:53:09;;;;;;;11.63;8.45;;;8.30;99.90;;;;;;5072934;28;20085;-69
2022/04/27 02:55:35;;;;;;;11.63;8.63;;;8.40;99.90;;;;;;5073057;28;20036;-67
2022/04/27 02:58:00;;;;;;;12.02;8.38;;;8.40;99.90;;;;;;5072734;28;20511;-69
2022/04/27 03:00:26;;;;;;;10.00;7.55;;;8.40;99.90;;;;;;5072694;28;20037;-68
2022/04/27 03:02:52;;;;;;;9.68;8.07;;;8.50;99.90;;;;;;5072688;28;20044;-69
2022/04/27 03:05:18;;;;;;;9.93;8.30;;;8.50;99.90;;;;;;5072233;28;20102;-67
2022/04/27 03:07:43;;;;;;;11.93;8.98;;;8.40;99.90;;;;;;5055303;28;20041;-67
2022/04/27 03:10:09;;;;;;;13.40;9.20;;;8.40;99.90;;;;;;5055783;28;20515;-69
2022/04/27 03:12:36;;;;;;;11.98;8.43;;;8.40;99.90;;;;;;5056493;28;20412;-67
2022/04/27 03:15:02;;;;;;;12.27;9.30;;;;;;;;;;5056841;28;20439;-67
2022/04/27 03:17:27;;;;;;;14.13;8.82;;;8.40;99.90;;;;;;5056428;28;20048;-67
2022/04/27 03:19:53;;;;;;;12.43;8.27;;;8.30;99.90;;;;;;5056342;28;20388;-66
2022/04/27 03:22:19;;;;;;;13.90;8.65;;;8.40;99.90;;;;;;5056378;28;20057;-67
2022/04/27 03:24:45;;;;;;;9.77;7.82;;;8.40;99.90;;;;;;5056363;28;20045;-67
2022/04/27 03:27:11;;;;;;;14.10;8.85;;;8.40;99.90;;;;;;5056403;28;20037;-66
2022/04/27 03:29:36;;;;;;;12.38;7.57;;;8.30;99.90;;;;;;5056338;28;20071;-67
2022/04/27 03:32:02;;;;;;;11.18;8.52;;;8.20;99.90;;;;;;5038271;28;20803;-67
2022/04/27 03:34:28;;;;;;;13.20;8.68;;;8.20;99.90;;;;;;5056177;28;20040;-68
2022/04/27 03:36:54;;;;;;;14.60;9.88;;;8.10;99.90;;;;;;5055983;28;20584;-67
2022/04/27 03:39:20;;;;;;;11.52;9.25;;;7.80;99.90;;;;;;5056172;28;20438;-67
2022/04/27 03:41:46;;;;;;;14.65;9.52;;;7.70;99.90;;;;;;5056109;28;20051;-67
2022/04/27 03:44:12;;;;;;;13.55;8.25;;;7.70;99.90;;;;;;5055978;28;20069;-67
2022/04/27 03:46:37;;;;;;;17.90;9.00;;;7.70;99.90;;;;;;5056129;28;20106;-67
2022/04/27 03:49:03;;;;;;;11.60;8.25;;;7.80;99.90;;;;;;5055949;28;20515;-67
2022/04/27 03:51:29;;;;;;;10.30;8.70;;;7.80;99.90;;;;;;5055732;28;20080;-66
2022/04/27 03:53:55;;;;;;;11.90;8.88;;;7.70;99.90;;;;;;5055863;28;20044;-67
2022/04/27 03:56:21;;;;;;;13.13;8.50;;;7.60;99.90;;;;;;5037958;28;20052;-67
2022/04/27 03:58:47;;;;;;;12.02;9.20;;;7.80;99.90;;;;;;5055975;28;20071;-67
2022/04/27 04:01:13;;;;;;;10.65;8.73;;;7.80;99.90;;;;;;5055873;28;20039;-67
2022/04/27 04:03:38;;;;;;;13.30;9.30;;;7.80;99.90;;;;;;5055726;28;20053;-67
2022/04/27 04:06:04;;;;;;;12.02;8.40;;;7.70;99.90;;;;;;5055439;28;20036;-67
2022/04/27 04:08:30;;;;;;;15.10;9.23;;;7.60;99.90;;;;;;5055437;28;20037;-67
2022/04/27 04:10:56;;;;;;;10.45;8.70;;;7.60;99.90;;;;;;5055574;28;20029;-67
2022/04/27 04:13:22;;;;;;;13.98;8.80;;;7.60;99.90;;;;;;5055573;28;20040;-67
2022/04/27 04:15:49;;;;;;;11.82;8.73;;;7.70;99.90;;;;;;5055272;28;20037;-67
2022/04/27 04:18:15;;;;;;;11.73;9.25;;;7.60;99.90;;;;;;5055357;28;20040;-68
2022/04/27 04:20:41;;;;;;;12.90;9.00;;;7.70;99.90;;;;;;5054534;28;20041;-67
2022/04/27 04:23:07;;;;;;;15.73;9.93;;;7.50;99.90;;;;;;5055175;28;20822;-67
2022/04/27 04:28:32;;;;;;;13.68;9.50;;;7.30;99.90;;;;;;5068740;28;20396;-67
2022/04/27 04:31:02;;;;;;;;;;;7.30;99.90;;;;;;5075482;28;20599;-67
2022/04/27 04:33:28;;;;;;;16.50;9.75;;;7.40;99.90;;;;;;5074917;28;20027;-67
2022/04/27 04:35:55;;;;;;;13.68;10.07;;;7.40;99.90;;;;;;5074804;28;20139;-66
2022/04/27 04:38:21;;;;;;;16.88;9.70;;;7.50;99.90;;;;;;5074940;28;20043;-67
2022/04/27 04:40:48;;;;;;;12.48;9.48;;;7.50;99.90;;;;;;5075114;28;20044;-68
2022/04/27 04:43:14;;;;;;;14.38;9.52;;;7.40;99.90;;;;;;5075046;28;20438;-67
2022/04/27 04:45:40;;;;;;;14.60;9.35;;;7.40;99.90;;;;;;5075044;28;20055;-67
2022/04/27 04:48:08;;;;;;;17.25;10.43;;;7.40;99.90;;;;;;5075069;28;20049;-67
2022/04/27 04:50:35;;;;;;;14.52;9.73;;;7.20;99.90;;;;;;5074743;28;20040;-68
2022/04/27 04:53:01;;;;;;;14.63;10.05;;;7.20;99.90;;;;;;5074814;28;20396;-67
2022/04/27 04:55:27;;;;;;;14.68;10.48;;;7.20;99.90;;;;;;5074823;28;20036;-67
2022/04/27 04:57:53;;;;;;;13.77;10.38;;;7.30;99.90;;;;;;5074700;28;20031;-69
2022/04/27 05:00:19;;;;;;;15.25;10.60;;;7.40;99.90;;;;;;5074763;28;20123;-69
2022/04/27 05:02:45;;;;;;;17.45;10.75;;;7.40;99.90;;;;;;5074720;28;20064;-67
2022/04/27 05:05:11;;;;;;;13.00;9.85;;;7.20;99.90;;;;;;5066583;28;20056;-67
2022/04/27 05:07:37;;;;;;;12.82;9.45;;;7.20;99.90;;;;;;5054617;28;20496;-67
2022/04/27 05:10:04;;;;;;;14.43;9.60;;;7.20;99.90;;;;;;5054577;28;20041;-67
2022/04/27 05:12:30;;;;;;;14.82;10.02;;;7.30;99.90;;;;;;5054414;28;20049;-68
2022/04/27 05:14:56;;;;;;;15.05;9.88;;;7.30;99.90;;;;;;5054315;28;20115;-67
2022/04/27 05:17:23;;;;;;;14.32;9.43;;;7.30;99.90;;;;;;5054180;28;20435;-67
2022/04/27 05:19:49;;;;;;;13.70;9.68;;;7.10;99.90;;;;;;5054439;28;20043;-68
2022/04/27 05:22:15;;;;;;;17.67;9.90;;;7.10;99.90;;;;;;5054435;28;20041;-67
2022/04/27 05:24:41;;;;;;;16.63;9.85;;;7.20;99.90;;;;;;5054193;28;20160;-68
2022/04/27 05:27:06;;;;;;;14.15;10.00;;;7.30;99.90;;;;;;5054110;28;20519;-67
2022/04/27 05:32:16;;;;;;;12.63;8.98;;;7.50;99.90;;;;;;5052357;28;20036;-67
2022/04/27 05:34:43;;;;;;;13.77;9.82;;;7.50;99.90;;;;;;5053613;28;20041;-67
2022/04/27 05:37:09;;;;;;;15.05;9.63;;;7.60;99.90;;;;;;5052753;28;20039;-67
2022/04/27 05:39:35;;;;;;;13.80;10.23;;;8.00;99.90;;;;;;5053720;28;20400;-68
2022/04/27 05:42:01;;;;;;;13.20;9.75;;;8.40;99.90;;;;;;5053972;28;20072;-67
2022/04/27 05:44:27;;;;;;;13.50;9.77;;;8.30;99.90;;;;;;5053758;28;20469;-67
2022/04/27 05:46:54;;;;;;;13.73;9.25;;;8.70;99.90;;;;;;5053771;28;20119;-66
2022/04/27 05:49:21;;;;;;;12.65;9.10;;;8.80;99.90;;;;;;5053652;28;20036;-68
2022/04/27 05:51:47;;;;;;;13.32;9.18;;;9.40;99.90;;;;;;5053470;28;20560;-68
2022/04/27 05:54:14;;;;;;;16.85;9.05;;;9.50;99.90;;;;;;5053570;28;20120;-68
2022/04/27 05:56:41;;;;;;;12.38;9.10;;;9.10;99.90;;;;;;5053813;28;20041;-68
2022/04/27 05:59:10;;;;;;;13.05;9.52;;;9.40;99.90;;;;;;5053491;28;20122;-68
2022/04/27 06:01:37;;;;;;;11.63;8.75;;;9.40;99.90;;;;;;5053340;28;20500;-68
2022/04/27 06:04:04;;;;;;;10.98;8.45;;;9.50;99.90;;;;;;5053305;28;20124;-68
2022/04/27 06:06:30;;;;;;;12.55;8.40;;;9.60;99.90;;;;;;5053329;28;20049;-68
2022/04/27 06:08:56;;;;;;;14.45;8.88;;;9.50;99.90;;;;;;5053450;28;20048;-69
2022/04/27 06:11:22;;;;;;;14.10;8.38;;;9.60;99.90;;;;;;5035607;28;20581;-69
2022/04/27 06:13:49;;;;;;;10.85;8.13;;;9.70;99.90;;;;;;5053414;28;20500;-68
2022/04/27 06:16:15;;;;;;;13.90;9.40;;;9.70;99.90;;;;;;5053323;28;20044;-68
2022/04/27 06:18:41;;;;;;;13.02;8.40;;;10.00;99.90;;;;;;5053320;28;20041;-70
2022/04/27 06:21:10;;;;;;;12.43;7.97;;;10.10;99.90;;;;;;5053442;28;20381;-69
2022/04/27 06:23:38;;;;;;;10.75;7.53;;;10.50;99.90;;;;;;5053040;28;20083;-68
2022/04/27 06:26:06;;;;;;;10.35;7.57;;;10.70;99.90;;;;;;5053026;28;20067;-68
2022/04/27 06:28:32;;;;;;;11.27;8.20;;;10.60;99.90;;;;;;5052941;28;20037;-68
2022/04/27 06:30:59;;;;;;;20.27;8.07;;;;;;;;;;5052799;28;20041;-68
2022/04/27 06:33:25;;;;;;;10.00;7.60;;;11.20;99.90;;;;;;5052876;28;20048;-69
2022/04/27 06:35:51;;;;;;;12.98;7.95;;;12.10;99.90;;;;;;5053172;28;20140;-68
2022/04/27 06:38:17;;;;;;;10.75;7.25;;;12.10;99.90;;;;;;5053090;28;20071;-69
2022/04/27 06:40:43;;;;;;;11.63;8.50;;;12.40;99.90;;;;;;5053022;28;20037;-68
2022/04/27 06:43:08;;;;;;;13.32;8.63;;;12.10;99.90;;;;;;5052368;28;20566;-70
2022/04/27 06:45:36;;;;;;;14.60;8.73;;;13.60;99.90;;;;;;5053384;28;20064;-69
2022/04/27 06:48:03;;;;;;;10.60;8.38;;;11.60;99.90;;;;;;5070638;28;20040;-68
2022/04/27 06:50:29;;;;;;;10.80;8.77;;;11.80;99.90;;;;;;5072996;28;20047;-71
2022/04/27 06:52:58;;;;;;;15.75;9.20;;;12.20;99.90;;;;;;5072916;28;20123;-69
2022/04/27 06:55:25;;;;;;;14.93;9.05;;;12.40;99.90;;;;;;5072560;28;20044;-69
2022/04/27 06:57:52;;;;;;;12.32;9.15;;;12.50;99.90;;;;;;5072493;28;20040;-72
2022/04/27 07:00:18;;;;;;;12.15;8.75;;;12.60;99.90;;;;;;5072700;28;20036;-69
2022/04/27 07:02:44;;;;;;;11.57;8.57;;;13.00;99.90;;;;;;5072596;28;20028;-69
2022/04/27 07:05:16;;;;;;;12.00;9.18;;;13.30;99.90;;;;;;5072629;28;20053;-69
2022/04/27 07:07:42;;;;;;;14.23;8.82;;;13.40;99.90;;;;;;5072770;28;20040;-70
2022/04/27 07:10:08;;;;;;;13.23;10.13;;;13.40;99.90;;;;;;5072626;28;20090;-68
2022/04/27 07:12:34;;;;;;;12.70;9.32;;;13.40;99.90;;;;;;5054758;28;20041;-70
2022/04/27 07:15:00;;;;;;;12.20;8.55;;;13.20;99.90;;;;;;5072785;28;20037;-69
2022/04/27 07:17:26;;;;;;;16.30;9.63;;;13.20;99.90;;;;;;5072666;28;20055;-71
2022/04/27 07:19:52;;;;;;;12.95;9.43;;;13.40;99.90;;;;;;5072855;28;20550;-70
2022/04/27 07:22:18;;;;;;;12.88;9.07;;;13.40;99.90;;;;;;5072644;28;20143;-69
2022/04/27 07:24:44;;;;;;;14.35;9.93;;;13.50;99.90;;;;;;5072428;28;20075;-69
2022/04/27 07:27:10;;;;;;;11.82;9.57;;;13.30;99.90;;;;;;5072571;28;20048;-70
2022/04/27 07:29:36;;;;;;;18.08;9.35;;;13.40;99.90;;;;;;5072577;28;20083;-70
2022/04/27 07:32:03;;;;;;;14.68;10.20;;;13.50;99.90;;;;;;5072659;28;20048;-71
2022/04/27 07:34:30;;;;;;;12.57;9.65;;;13.90;99.90;;;;;;5070605;28;20052;-68
2022/04/27 07:37:01;;;;;;;14.65;10.85;;;13.90;99.90;;;;;;5071141;28;20090;-70
2022/04/27 07:39:27;;;;;;;12.10;8.93;;;14.00;99.90;;;;;;5072283;28;20063;-70
2022/04/27 07:41:53;;;;;;;14.13;8.45;;;14.50;99.90;;;;;;5072314;28;20496;-69
2022/04/27 07:44:19;;;;;;;11.30;7.75;;;14.80;99.90;;;;;;5072191;28;20055;-69
2022/04/27 07:46:47;;;;;;;11.95;9.02;;;15.20;99.90;;;;;;5072293;28;20047;-69
2022/04/27 07:49:19;;;;;;;10.95;9.00;;;15.00;99.90;;;;;;5072116;28;20526;-70
2022/04/27 07:51:46;;;;;;;14.82;9.57;;;15.10;99.90;;;;;;5072031;28;20052;-69
2022/04/27 07:54:12;;;;;;;12.38;8.73;;;15.30;99.90;;;;;;5072087;28;20033;-69
2022/04/27 07:56:39;;;;;;;12.60;9.48;;;15.10;99.90;;;;;;5074379;28;20048;-70
2022/04/27 07:59:04;;;;;;;20.02;9.75;;;14.80;99.90;;;;;;5075955;28;20029;-71
2022/04/27 08:01:30;;;;;;;15.13;8.65;;;15.40;99.90;;;;;;5076101;28;20040;-69
2022/04/27 08:03:57;;;;;;;12.10;9.48;;;14.80;99.90;;;;;;5075012;28;20037;-69
2022/04/27 08:06:22;;;;;;;12.45;9.50;;;15.10;99.90;;;;;;5075505;28;20048;-70
2022/04/27 08:08:48;;;;;;;12.98;9.50;;;15.30;99.90;;;;;;5074711;28;20043;-69
2022/04/27 08:11:15;;;;;;;13.30;10.52;;;15.50;99.90;;;;;;5075070;28;20051;-69
2022/04/27 08:13:42;;;;;;;13.30;9.98;;;15.40;99.90;;;;;;5075355;28;20036;-68
2022/04/27 08:16:12;;;;;;;12.32;9.40;;;15.00;99.90;;;;;;5075297;28;20049;-68
2022/04/27 08:18:41;;;;;;;14.75;10.07;;;15.70;99.90;;;;;;5075263;28;20035;-68
2022/04/27 08:21:16;;;;;;;17.33;10.27;;;16.10;99.90;;;;;;5075250;28;20055;-69
2022/04/27 08:23:43;;;;;;;14.75;9.82;;;15.90;99.90;;;;;;5075130;28;20045;-68
2022/04/27 08:26:13;;;;;;;18.50;10.77;;;15.90;99.90;;;;;;5074918;28;20072;-68
2022/04/27 08:28:39;;;;;;;11.77;9.40;;;;;;;;;;5074995;28;20518;-69
2022/04/27 08:31:07;;;;;;;12.02;9.75;;;16.60;99.90;;;;;;5075262;28;20043;-70
2022/04/27 08:33:33;;;;;;;11.30;9.68;;;16.20;99.90;;;;;;5075402;28;20033;-69
2022/04/27 08:36:00;;;;;;;15.38;11.05;;;15.70;99.90;;;;;;5075212;28;20101;-68
2022/04/27 08:38:27;;;;;;;12.93;9.93;;;15.50;99.90;;;;;;5075252;28;20032;-69
2022/04/27 08:40:55;;;;;;;13.68;9.95;;;16.10;99.90;;;;;;5075088;28;20068;-70
2022/04/27 08:43:21;;;;;;;10.80;9.02;;;16.00;99.90;;;;;;5075071;28;20117;-69
2022/04/27 08:45:48;;;;;;;14.23;10.15;;;16.00;99.90;;;;;;5074993;28;20098;-69
2022/04/27 08:48:17;;;;;;;14.80;11.05;;;16.20;99.90;;;;;;5074979;28;20113;-68
2022/04/27 08:50:44;;;;;;;14.57;10.25;;;16.60;99.90;;;;;;5074818;28;20048;-72
2022/04/27 08:53:11;;;;;;;11.68;9.55;;;16.80;99.90;;;;;;5074696;28;20044;-69
2022/04/27 08:55:39;;;;;;;13.80;10.07;;;16.20;99.90;;;;;;5074761;28;20029;-69
2022/04/27 08:58:14;;;;;;;11.88;9.60;;;16.20;99.90;;;;;;5074747;28;20117;-68
2022/04/27 09:00:42;;;;;;;14.98;10.82;;;16.20;99.90;;;;;;5074629;28;20068;-69
2022/04/27 09:03:33;;;;;;;14.77;10.80;;;16.00;99.90;;;;;;5074629;28;20052;-69
2022/04/27 09:06:02;;;;;;;14.63;11.30;;;16.50;99.90;;;;;;5074601;28;20092;-68
2022/04/27 09:08:37;;;;;;;13.10;9.90;;;;;;;;;;5074203;28;20051;-69
2022/04/27 09:11:17;;;;;;;14.40;9.70;;;17.70;99.90;;;;;;5073944;28;20044;-68
2022/04/27 09:14:08;;;;;;;12.65;9.07;;;17.50;99.90;;;;;;5074479;28;20563;-69
2022/04/27 09:22:11;;;;;;;12.80;10.57;;;17.30;99.90;;;;;;5074236;28;20040;-69
2022/04/27 09:24:47;;;;;;;13.90;10.75;;;17.40;99.90;;;;;;5074144;28;20048;-69
2022/04/27 09:27:17;;;;;;;12.93;10.70;;;17.20;99.90;;;;;;5074278;28;20029;-69
2022/04/27 09:29:43;;;;;;;12.25;10.05;;;17.50;99.90;;;;;;5073879;28;20048;-69
2022/04/27 09:32:17;;;;;;;12.60;9.50;;;17.30;99.90;;;;;;5073849;28;20068;-69
2022/04/27 09:34:49;;;;;;;11.73;9.32;;;17.10;99.90;;;;;;5073753;28;20048;-69
2022/04/27 09:37:17;;;;;;;14.55;9.63;;;17.40;99.90;;;;;;5073739;28;20047;-69
2022/04/27 09:40:01;;;;;;;10.85;8.90;;;17.40;99.90;;;;;;5073924;28;20049;-69
2022/04/27 09:42:34;;;;;;;14.60;10.07;;;17.50;99.90;;;;;;5073865;28;20052;-69
2022/04/27 09:45:19;;;;;;;14.90;9.65;;;17.70;99.90;;;;;;5063186;28;20052;-67
2022/04/27 09:47:50;;;;;;;12.43;9.13;;;17.50;99.90;;;;;;5053797;28;20124;-69
2022/04/27 09:50:17;;;;;;;17.23;9.77;;;17.50;99.90;;;;;;5053887;28;20396;-70
2022/04/27 09:52:44;;;;;;;15.25;10.15;;;16.00;99.90;;;;;;5053486;28;20075;-69
2022/04/27 09:55:10;;;;;;;16.00;9.68;;;16.40;99.90;;;;;;5053529;28;20489;-69
2022/04/27 09:57:40;;;;;;;16.15;11.43;;;16.40;99.90;;;;;;5053733;28;20397;-70
2022/04/27 10:00:08;;;;;;;13.13;9.45;;;16.70;99.70;;;;;;5053682;28;20045;-69
2022/04/27 10:02:37;;;;;;;12.30;9.23;;;16.70;99.90;;;;;;5053590;28;20531;-69
2022/04/27 10:05:04;;;;;;;15.82;10.02;;;16.80;99.90;;;;;;5053408;28;20047;-68
2022/04/27 10:07:32;;;;;;;11.35;8.82;;;15.90;99.90;;;;;;5053513;28;20086;-68
2022/04/27 10:09:59;;;;;;;18.17;7.82;;;15.80;99.90;;;;;;5053422;28;20045;-68
2022/04/27 10:12:25;;;;;;;16.05;8.45;;;15.60;99.90;;;;;;5053246;28;20382;-68
2022/04/27 10:14:51;;;;;;;11.07;8.52;;;15.20;99.90;;;;;;5053247;28;20049;-68
2022/04/27 10:17:17;;;;;;;12.38;9.85;;;15.40;99.90;;;;;;5053275;28;20116;-68
2022/04/27 10:19:46;;;;;;;13.43;9.63;;;16.20;99.90;;;;;;5052604;28;20062;-68
2022/04/27 10:22:34;;;;;;;15.10;8.93;;;16.90;99.90;;;;;;5053252;28;20036;-67
2022/04/27 10:25:09;;;;;;;10.23;7.70;;;16.50;99.80;;;;;;5053152;28;20163;-68
2022/04/27 10:27:37;;;;;;;11.23;7.78;;;16.30;99.90;;;;;;5053087;28;20124;-68
2022/04/27 10:30:11;;;;;;;9.05;6.43;;;16.10;99.90;;;;;;5053172;28;20508;-69
2022/04/27 10:32:39;;;;;;;14.88;10.02;;;15.90;98.90;;;;;;5053365;28;20503;-68
2022/04/27 10:35:30;;;;;;;19.02;8.85;;;15.20;99.90;;;;;;5053098;28;20044;-68
2022/04/27 10:37:58;;;;;;;11.05;8.30;;;15.40;99.90;;;;;;5053050;28;20033;-67
2022/04/27 10:40:40;;;;;;;11.90;8.52;;;16.00;99.90;;;;;;5053018;28;20045;-67
2022/04/27 10:43:05;;;;;;;12.98;9.82;;;16.30;99.90;;;;;;5053057;28;20037;-68
2022/04/27 10:45:33;;;;;;;14.82;9.57;;;15.80;99.90;;;;;;5052487;28;20048;-67
2022/04/27 10:47:59;;;;;;;13.63;9.43;;;16.30;99.90;;;;;;5052560;28;20036;-67
2022/04/27 10:50:29;;;;;;;15.88;10.30;;;16.20;99.90;;;;;;5052614;28;20389;-68
2022/04/27 10:52:56;;;;;;;14.30;9.98;;;16.30;99.90;;;;;;5052543;28;20040;-67
2022/04/27 10:55:37;;;;;;;14.63;9.88;;;16.80;99.90;;;;;;5052788;28;20045;-67
2022/04/27 10:58:24;;;;;;;14.30;9.95;;;16.90;99.90;;;;;;5052777;28;20044;-67
2022/04/27 11:01:01;;;;;;;11.98;8.73;;;16.70;99.50;;;;;;5052677;28;20041;-67
2022/04/27 11:03:35;;;;;;;12.70;9.48;;;16.40;99.90;;;;;;5055383;28;20068;-67
2022/04/27 11:06:07;;;;;;;14.50;8.95;;;16.50;99.90;;;;;;5061581;28;20492;-67
2022/04/27 11:09:08;;;;;;;17.38;7.65;;;16.30;99.90;;;;;;5072496;28;20033;-69
2022/04/27 11:11:53;;;;;;;11.10;7.10;;;16.50;99.90;;;;;;5054245;28;20049;-67
2022/04/27 11:14:21;;;;;;;9.90;7.07;;;16.00;99.50;;;;;;5058122;28;20071;-67
2022/04/27 11:16:48;;;;;;;10.73;7.10;;;16.30;99.90;;;;;;5060385;28;20037;-68
2022/04/27 11:19:15;;;;;;;10.02;7.30;;;16.20;99.90;;;;;;5062051;28;20063;-68
2022/04/27 11:21:41;;;;;;;11.57;7.55;;;16.50;99.10;;;;;;5066982;28;20051;-67
2022/04/27 11:24:11;;;;;;;12.95;8.55;;;16.50;98.80;;;;;;5072007;28;20404;-68
2022/04/27 11:26:46;;;;;;;17.02;8.88;;;16.40;99.90;;;;;;5072803;28;20068;-68
2022/04/27 11:29:14;;;;;;;34.63;8.65;;;16.50;99.90;;;;;;5072494;28;20512;-68
2022/04/27 11:31:43;;;;;;;11.88;8.75;;;16.20;99.90;;;;;;5076048;28;20055;-68
2022/04/27 11:34:26;;;;;;;13.80;9.18;;;16.30;99.90;;;;;;5068173;28;20123;-67
2022/04/27 11:36:54;;;;;;;12.98;8.32;;;15.60;99.40;;;;;;5066814;28;20119;-68
2022/04/27 11:39:25;;;;;;;12.48;8.40;;;16.50;99.90;;;;;;5064628;28;20531;-67
2022/04/27 11:41:59;;;;;;;12.68;8.13;;;16.40;99.30;;;;;;5065698;28;20050;-67
2022/04/27 11:44:25;;;;;;;12.90;8.27;;;16.50;99.90;;;;;;5064803;28;20040;-68
2022/04/27 11:46:51;;;;;;;14.15;9.40;;;16.60;99.90;;;;;;5065579;28;20106;-68
2022/04/27 11:49:17;;;;;;;11.27;8.20;;;15.90;99.20;;;;;;5066477;28;20041;-68
2022/04/27 11:51:47;;;;;;;12.07;8.80;;;16.30;99.50;;;;;;5067476;28;20124;-68
2022/04/27 11:54:26;;;;;;;14.25;8.13;;;16.10;98.60;;;;;;5063967;28;20052;-68
2022/04/27 11:57:01;;;;;;;12.45;7.32;;;16.30;99.90;;;;;;5064094;28;20120;-68
2022/04/27 11:59:47;;;;;;;9.70;6.65;;;16.40;99.60;;;;;;5064710;28;20036;-68
2022/04/27 12:02:13;;;;;;;14.13;8.48;;;16.60;98.40;;;;;;5066220;28;20086;-68
2022/04/27 12:04:42;;;;;;;11.15;7.90;;;16.70;99.50;;;;;;5064626;28;20139;-68
2022/04/27 12:07:22;;;;;;;14.48;7.38;;;16.80;98.60;;;;;;5066185;28;20111;-68
2022/04/27 12:10:29;;;;;;;10.20;7.50;;;16.60;98.90;;;;;;5065995;28;20527;-67
2022/04/27 12:12:59;;;;;;;11.25;7.75;;;16.80;99.90;;;;;;5063888;28;20043;-67
2022/04/27 12:15:28;;;;;;;9.75;7.78;;;16.60;98.60;;;;;;5065907;28;20037;-67
2022/04/27 12:17:58;;;;;;;10.65;7.18;;;16.70;99.90;;;;;;5064290;28;20036;-68
2022/04/27 12:20:40;;;;;;;10.00;6.72;;;16.80;99.80;;;;;;5064011;28;20538;-68
2022/04/27 12:23:17;;;;;;;9.48;7.15;;;16.80;99.90;;;;;;5063000;28;20385;-67
2022/04/27 12:26:01;;;;;;;11.48;7.35;;;16.90;99.20;;;;;;5062832;28;20147;-67
2022/04/27 12:28:29;;;;;;;13.57;7.25;;;16.60;98.00;;;;;;5063189;28;20592;-68
2022/04/27 12:31:05;;;;;;;13.18;7.22;;;16.60;97.60;;;;;;5061088;28;20036;-67
2022/04/27 12:33:44;;;;;;;10.68;6.60;;;16.90;99.70;;;;;;5063694;28;20040;-68
2022/04/27 12:39:04;;;;;;;9.10;5.40;;;16.90;99.40;;;;;;5060876;28;20040;-67
2022/04/27 12:41:40;;;;;;;9.00;5.90;;;16.80;97.90;;;;;;5062212;28;20053;-68
2022/04/27 12:44:14;;;;;;;7.95;5.00;;;16.50;97.40;;;;;;5062993;28;20542;-67
2022/04/27 12:47:12;;;;;;;12.35;5.85;;;17.10;99.90;;;;;;5062095;28;20040;-68
2022/04/27 12:49:44;;;;;;;8.20;6.28;;;16.60;98.50;;;;;;5062668;28;20040;-67
2022/04/27 12:52:26;;;;;;;13.45;6.18;;;16.90;98.70;;;;;;5061094;28;20134;-68
2022/04/27 12:55:09;;;;;;;10.40;6.00;;;16.90;99.60;;;;;;5061722;28;20099;-68
2022/04/27 12:57:59;;;;;;;11.85;6.57;;;16.90;98.50;;;;;;5062421;28;20086;-68
2022/04/27 13:00:46;;;;;;;11.20;5.63;;;16.90;97.70;;;;;;5063062;28;20496;-68
2022/04/27 13:03:14;;;;;;;7.93;5.18;;;17.00;98.20;;;;;;5061539;28;20374;-67
2022/04/27 13:05:41;;;;;;;7.32;4.97;;;17.30;97.90;;;;;;5060627;28;20051;-68
2022/04/27 13:08:07;;;;;;;6.85;4.85;;;;;;;;;;5060753;28;20047;-68
2022/04/27 13:13:19;;;;;;;7.90;5.78;;;16.80;97.70;;;;;;5063031;28;20539;-68
2022/04/27 13:15:46;;;;;;;5.95;4.68;;;16.90;97.00;;;;;;5061323;28;20555;-67